createdAt,value
2019-05-01T00:01:11.356Z,99.90
2019-05-01T00:03:41.764Z,99.90
2019-05-01T00:06:12.382Z,99.90
2019-05-01T00:08:41.233Z,99.90
2019-05-01T00:11:09.967Z,99.90
2019-05-01T00:13:38.743Z,99.90
2019-05-01T00:16:07.545Z,99.90
2019-05-01T00:18:36.311Z,99.90
2019-05-01T00:21:05.045Z,99.90
2019-05-01T00:23:33.819Z,99.90
2019-05-01T00:26:02.564Z,99.90
2019-05-01T00:28:31.401Z,99.90
2019-05-01T00:31:00.220Z,99.90
2019-05-01T00:33:28.994Z,99.90
2019-05-01T00:35:57.730Z,99.90
2019-05-01T00:38:26.502Z,99.90
2019-05-01T00:40:55.312Z,99.90
2019-05-01T00:43:24.099Z,99.90
2019-05-01T00:45:52.832Z,99.90
2019-05-01T00:48:21.576Z,99.90
2019-05-01T00:50:50.341Z,99.90
2019-05-01T00:53:19.161Z,99.90
2019-05-01T00:56:04.713Z,99.90
2019-05-01T00:58:50.492Z,99.90
2019-05-01T01:01:23.824Z,99.90
2019-05-01T01:03:52.677Z,99.90
2019-05-01T01:06:21.512Z,99.90
2019-05-01T01:08:50.277Z,99.90
2019-05-01T01:11:19.044Z,99.90
2019-05-01T01:13:47.785Z,99.90
2019-05-01T01:16:16.557Z,99.90
2019-05-01T01:18:46.539Z,99.90
2019-05-01T01:21:15.338Z,99.90
2019-05-01T01:23:44.843Z,99.90
2019-05-01T01:26:13.902Z,99.90
2019-05-01T01:28:42.647Z,99.90
2019-05-01T01:31:11.480Z,99.90
2019-05-01T01:33:40.217Z,99.90
2019-05-01T01:36:08.980Z,99.90
2019-05-01T01:38:37.738Z,99.90
2019-05-01T01:41:06.733Z,99.90
2019-05-01T01:43:53.620Z,99.90
2019-05-01T01:46:27.247Z,99.90
2019-05-01T01:48:56.651Z,99.90
2019-05-01T01:51:25.617Z,99.90
2019-05-01T01:53:55.128Z,99.90
2019-05-01T01:56:23.900Z,99.90
2019-05-01T01:58:53.736Z,99.90
2019-05-01T02:01:40.197Z,99.90
2019-05-01T02:04:13.328Z,99.90
2019-05-01T02:06:42.172Z,99.90
2019-05-01T02:09:11.075Z,99.90
2019-05-01T02:11:40.136Z,99.90
2019-05-01T02:14:08.884Z,99.90
2019-05-01T02:16:37.763Z,99.90
2019-05-01T02:19:06.573Z,99.90
2019-05-01T02:21:35.341Z,99.90
2019-05-01T02:24:04.076Z,99.90
2019-05-01T02:26:34.540Z,99.90
2019-05-01T02:29:04.927Z,99.90
2019-05-01T02:31:36.337Z,99.90
2019-05-01T02:34:06.247Z,99.90
2019-05-01T02:36:35.257Z,99.90
2019-05-01T02:39:05.748Z,99.90
2019-05-01T02:41:36.611Z,99.90
2019-05-01T02:44:11.401Z,99.90
2019-05-01T02:46:43.119Z,99.90
2019-05-01T02:49:17.596Z,99.90
2019-05-01T02:51:46.657Z,99.90
2019-05-01T02:54:18.339Z,99.90
2019-05-01T02:56:59.553Z,99.90
2019-05-01T02:59:30.643Z,99.90
2019-05-01T03:02:02.071Z,99.90
2019-05-01T03:04:31.410Z,99.90
2019-05-01T03:07:00.980Z,99.90
2019-05-01T03:09:30.263Z,99.90
2019-05-01T03:12:00.300Z,99.90
2019-05-01T03:14:58.161Z,99.90
2019-05-01T03:17:31.960Z,99.90
2019-05-01T03:20:03.677Z,99.90
2019-05-01T03:22:34.462Z,99.90
2019-05-01T03:25:03.323Z,99.90
2019-05-01T03:27:32.080Z,99.90
2019-05-01T03:30:00.914Z,99.90
2019-05-01T03:32:29.862Z,99.90
2019-05-01T03:34:58.706Z,99.90
2019-05-01T03:37:27.881Z,99.90
2019-05-01T03:39:56.964Z,99.90
2019-05-01T03:42:26.101Z,99.90
2019-05-01T03:44:55.057Z,99.90
2019-05-01T03:47:23.794Z,99.90
2019-05-01T03:49:53.086Z,99.90
2019-05-01T03:52:22.139Z,99.90
2019-05-01T03:54:50.909Z,99.90
2019-05-01T03:57:19.987Z,99.90
2019-05-01T03:59:49.226Z,99.90
2019-05-01T04:02:33.255Z,99.90
2019-05-01T04:04:50.526Z,99.90
2019-05-01T04:07:19.592Z,99.90
2019-05-01T04:09:50.219Z,99.90
2019-05-01T04:12:19.404Z,99.90
2019-05-01T04:14:49.025Z,99.90
2019-05-01T04:17:25.723Z,99.90
2019-05-01T04:19:54.564Z,99.90
2019-05-01T04:22:23.901Z,99.90
2019-05-01T04:24:52.940Z,99.90
2019-05-01T04:27:23.617Z,99.90
2019-05-01T04:29:54.243Z,99.90
2019-05-01T04:32:24.819Z,99.90
2019-05-01T04:34:55.330Z,99.90
2019-05-01T04:37:25.685Z,99.90
2019-05-01T04:39:55.013Z,99.90
2019-05-01T04:42:23.773Z,99.90
2019-05-01T04:44:52.534Z,99.90
2019-05-01T04:47:22.101Z,99.90
2019-05-01T04:49:50.838Z,99.90
2019-05-01T04:52:19.715Z,99.90
2019-05-01T04:54:48.654Z,99.90
2019-05-01T04:57:18.021Z,99.90
2019-05-01T04:59:47.925Z,99.90
2019-05-01T05:02:32.493Z,99.90
2019-05-01T05:05:01.375Z,99.90
2019-05-01T05:07:30.256Z,99.90
2019-05-01T05:09:59.372Z,99.90
2019-05-01T05:12:29.985Z,99.90
2019-05-01T05:15:12.899Z,99.90
2019-05-01T05:17:42.299Z,99.90
2019-05-01T05:20:11.299Z,99.90
2019-05-01T05:22:40.241Z,99.90
2019-05-01T05:25:09.008Z,99.90
2019-05-01T05:27:38.376Z,99.90
2019-05-01T05:30:07.184Z,99.90
2019-05-01T05:32:37.957Z,99.90
2019-05-01T05:35:08.165Z,99.90
2019-05-01T05:37:56.294Z,99.90
2019-05-01T05:40:28.783Z,99.90
2019-05-01T05:42:58.138Z,99.90
2019-05-01T05:45:27.479Z,99.90
2019-05-01T05:47:56.398Z,99.90
2019-05-01T05:50:26.888Z,99.90
2019-05-01T05:53:18.372Z,99.90
2019-05-01T05:55:56.120Z,99.90
2019-05-01T05:58:27.031Z,99.90
2019-05-01T06:01:15.748Z,99.90
2019-05-01T06:03:48.931Z,99.90
2019-05-01T06:06:43.807Z,99.90
2019-05-01T06:09:15.672Z,99.90
2019-05-01T06:12:04.856Z,99.90
2019-05-01T06:14:41.032Z,99.90
2019-05-01T06:17:17.000Z,99.90
2019-05-01T06:19:50.960Z,99.90
2019-05-01T06:22:28.381Z,99.90
2019-05-01T06:25:21.480Z,99.90
2019-05-01T06:27:39.876Z,99.90
2019-05-01T06:30:10.988Z,99.90
2019-05-01T06:32:41.392Z,99.90
2019-05-01T06:35:10.328Z,99.90
2019-05-01T06:38:02.195Z,99.90
2019-05-01T06:40:43.049Z,99.90
2019-05-01T06:43:20.201Z,99.90
2019-05-01T06:46:07.829Z,99.90
2019-05-01T06:48:38.212Z,99.90
2019-05-01T06:51:24.865Z,99.90
2019-05-01T06:53:53.680Z,99.90
2019-05-01T06:56:22.649Z,99.90
2019-05-01T06:58:55.234Z,99.90
2019-05-01T07:01:24.043Z,99.90
2019-05-01T07:04:03.654Z,99.90
2019-05-01T07:06:26.068Z,99.90
2019-05-01T07:08:54.134Z,99.90
2019-05-01T07:11:22.991Z,99.90
2019-05-01T07:13:51.808Z,99.90
2019-05-01T07:16:23.321Z,99.90
2019-05-01T07:18:58.010Z,99.90
2019-05-01T07:21:27.723Z,99.90
2019-05-01T07:23:55.484Z,99.90
2019-05-01T07:26:24.274Z,99.90
2019-05-01T07:29:06.080Z,99.90
2019-05-01T07:31:34.893Z,99.90
2019-05-01T07:34:15.837Z,99.90
2019-05-01T07:36:34.191Z,99.90
2019-05-01T07:39:04.697Z,99.90
2019-05-01T07:41:33.887Z,99.90
2019-05-01T07:44:22.817Z,99.90
2019-05-01T07:46:56.296Z,99.90
2019-05-01T07:49:28.220Z,99.90
2019-05-01T07:51:57.180Z,99.90
2019-05-01T07:54:25.940Z,99.90
2019-05-01T07:56:58.784Z,99.90
2019-05-01T07:59:27.490Z,99.90
2019-05-01T08:01:59.950Z,99.90
2019-05-01T08:04:35.888Z,99.90
2019-05-01T08:06:59.161Z,99.90
2019-05-01T08:09:27.936Z,99.90
2019-05-01T08:11:56.680Z,99.90
2019-05-01T08:14:25.459Z,99.90
2019-05-01T08:16:54.283Z,99.90
2019-05-01T08:19:27.104Z,99.90
2019-05-01T08:22:01.605Z,99.90
2019-05-01T08:24:27.968Z,99.90
2019-05-01T08:26:56.787Z,99.90
2019-05-01T08:29:43.824Z,99.90
2019-05-01T08:32:14.252Z,99.90
2019-05-01T08:34:49.185Z,99.90
2019-05-01T08:37:13.452Z,99.90
2019-05-01T08:39:44.318Z,99.90
2019-05-01T08:42:12.609Z,99.90
2019-05-01T08:44:43.132Z,99.90
2019-05-01T08:47:16.504Z,99.90
2019-05-01T08:49:58.980Z,99.90
2019-05-01T08:52:27.728Z,99.90
2019-05-01T08:54:56.617Z,99.90
2019-05-01T08:57:29.201Z,99.90
2019-05-01T09:00:00.184Z,99.90
2019-05-01T09:02:26.268Z,99.90
2019-05-01T09:05:02.152Z,99.90
2019-05-01T09:07:25.488Z,99.90
2019-05-01T09:09:54.229Z,99.90
2019-05-01T09:12:23.264Z,99.90
2019-05-01T09:14:52.097Z,99.90
2019-05-01T09:17:20.861Z,99.90
2019-05-01T09:19:49.597Z,99.90
2019-05-01T09:22:18.365Z,99.90
2019-05-01T09:24:48.076Z,99.90
2019-05-01T09:27:34.940Z,99.90
2019-05-01T09:30:09.520Z,99.90
2019-05-01T09:32:38.297Z,99.90
2019-05-01T09:35:15.403Z,99.90
2019-05-01T09:37:37.548Z,99.90
2019-05-01T09:40:10.411Z,99.90
2019-05-01T09:42:39.362Z,99.90
2019-05-01T09:45:08.397Z,99.90
2019-05-01T09:47:37.529Z,99.90
2019-05-01T09:50:07.448Z,99.90
2019-05-01T09:52:47.084Z,99.90
2019-05-01T09:55:24.901Z,99.90
2019-05-01T09:57:53.861Z,99.90
2019-05-01T10:00:24.976Z,98.50
2019-05-01T10:02:54.751Z,97.30
2019-05-01T10:05:29.133Z,99.60
2019-05-01T10:07:59.977Z,98.20
2019-05-01T10:10:24.814Z,99.60
2019-05-01T10:12:54.941Z,99.10
2019-05-01T10:15:23.782Z,99.40
2019-05-01T10:17:52.593Z,94.40
2019-05-01T10:20:21.365Z,94.60
2019-05-01T10:22:50.108Z,95.40
2019-05-01T10:25:18.880Z,94.70
2019-05-01T10:27:49.281Z,96.30
2019-05-01T10:30:22.442Z,94.40
2019-05-01T10:32:57.926Z,93.70
2019-05-01T10:35:42.820Z,94.40
2019-05-01T10:38:09.308Z,96.20
2019-05-01T10:40:37.524Z,95.20
2019-05-01T10:43:06.420Z,91.60
2019-05-01T10:45:35.237Z,91.90
2019-05-01T10:48:05.040Z,97.70
2019-05-01T10:50:33.922Z,94.40
2019-05-01T10:53:02.677Z,95.30
2019-05-01T10:55:31.441Z,95.10
2019-05-01T10:58:03.114Z,92.70
2019-05-01T11:00:30.948Z,93.60
2019-05-01T11:02:59.794Z,92.70
2019-05-01T11:05:28.572Z,92.50
2019-05-01T11:07:57.393Z,91.70
2019-05-01T11:10:26.164Z,91.90
2019-05-01T11:12:54.986Z,95.60
2019-05-01T11:15:23.798Z,91.50
2019-05-01T11:17:52.571Z,88.80
2019-05-01T11:20:21.405Z,91.20
2019-05-01T11:22:50.233Z,90.20
2019-05-01T11:25:20.647Z,93.20
2019-05-01T11:27:49.427Z,96.20
2019-05-01T11:30:18.532Z,93.20
2019-05-01T11:32:51.697Z,90.10
2019-05-01T11:35:25.127Z,90.10
2019-05-01T11:38:01.433Z,91.10
2019-05-01T11:40:37.898Z,90.20
2019-05-01T11:43:06.664Z,91.70
2019-05-01T11:45:35.468Z,87.30
2019-05-01T11:48:04.316Z,83.70
2019-05-01T11:50:36.045Z,83.30
2019-05-01T11:53:04.861Z,82.90
2019-05-01T11:55:33.598Z,83.40
2019-05-01T11:58:02.437Z,88.80
2019-05-01T12:00:31.254Z,87.80
2019-05-01T12:03:00.113Z,91.00
2019-05-01T12:05:28.861Z,89.50
2019-05-01T12:07:57.646Z,90.00
2019-05-01T12:10:26.455Z,88.30
2019-05-01T12:12:55.213Z,90.40
2019-05-01T12:15:24.061Z,90.00
2019-05-01T12:17:52.831Z,88.10
2019-05-01T12:20:22.559Z,87.60
2019-05-01T12:22:51.725Z,89.30
2019-05-01T12:25:20.662Z,91.70
2019-05-01T12:27:49.701Z,90.50
2019-05-01T12:30:18.940Z,90.20
2019-05-01T12:32:47.793Z,89.50
2019-05-01T12:35:16.633Z,89.10
2019-05-01T12:37:45.370Z,92.30
2019-05-01T12:40:17.299Z,89.70
2019-05-01T12:42:46.106Z,88.60
2019-05-01T12:45:15.941Z,89.70
2019-05-01T12:47:49.450Z,88.80
2019-05-01T12:50:18.614Z,84.80
2019-05-01T12:52:49.002Z,90.20
2019-05-01T12:55:19.406Z,88.70
2019-05-01T12:57:48.143Z,85.10
2019-05-01T13:00:18.548Z,85.70
2019-05-01T13:02:47.372Z,91.70
2019-05-01T13:05:16.238Z,89.00
2019-05-01T13:07:45.005Z,90.70
2019-05-01T13:10:13.949Z,90.00
2019-05-01T13:12:42.783Z,92.20
2019-05-01T13:15:11.695Z,90.20
2019-05-01T13:17:40.555Z,87.70
2019-05-01T13:20:09.289Z,85.30
2019-05-01T13:22:38.059Z,85.70
2019-05-01T13:25:07.589Z,82.10
2019-05-01T13:27:38.001Z,83.30
2019-05-01T13:30:11.329Z,86.70
2019-05-01T13:32:41.745Z,87.30
2019-05-01T13:35:10.680Z,92.60
2019-05-01T13:37:39.616Z,85.10
2019-05-01T13:40:09.536Z,85.30
2019-05-01T13:42:38.301Z,90.80
2019-05-01T13:45:08.548Z,88.70
2019-05-01T13:47:37.381Z,90.90
2019-05-01T13:50:07.089Z,90.40
2019-05-01T13:52:35.856Z,84.20
2019-05-01T13:55:06.231Z,87.00
2019-05-01T13:57:34.964Z,84.90
2019-05-01T14:00:07.752Z,83.80
2019-05-01T14:02:36.565Z,87.00
2019-05-01T14:05:08.380Z,85.20
2019-05-01T14:07:37.167Z,80.70
2019-05-01T14:10:06.506Z,81.60
2019-05-01T14:12:35.354Z,81.80
2019-05-01T14:15:04.785Z,81.40
2019-05-01T14:17:33.544Z,86.30
2019-05-01T14:20:06.912Z,82.90
2019-05-01T14:22:43.322Z,83.60
2019-05-01T14:25:13.732Z,85.50
2019-05-01T14:27:42.472Z,81.20
2019-05-01T14:30:11.920Z,82.20
2019-05-01T14:32:40.728Z,81.00
2019-05-01T14:35:09.909Z,78.60
2019-05-01T14:37:38.828Z,79.70
2019-05-01T14:40:09.169Z,79.00
2019-05-01T14:42:37.977Z,77.00
2019-05-01T14:45:08.813Z,78.80
2019-05-01T14:47:37.593Z,77.20
2019-05-01T14:50:06.960Z,77.10
2019-05-01T14:52:35.733Z,76.00
2019-05-01T14:55:06.857Z,77.30
2019-05-01T14:57:35.640Z,80.90
2019-05-01T15:00:06.253Z,80.20
2019-05-01T15:02:35.106Z,79.10
2019-05-01T15:05:05.445Z,79.00
2019-05-01T15:07:43.485Z,80.90
2019-05-01T15:10:05.940Z,79.70
2019-05-01T15:12:34.789Z,81.30
2019-05-01T15:15:17.316Z,79.80
2019-05-01T15:17:50.412Z,78.70
2019-05-01T15:20:19.209Z,77.70
2019-05-01T15:22:48.009Z,79.40
2019-05-01T15:25:16.713Z,78.40
2019-05-01T15:27:45.650Z,78.30
2019-05-01T15:30:17.532Z,79.60
2019-05-01T15:32:46.773Z,76.60
2019-05-01T15:35:15.511Z,77.00
2019-05-01T15:37:56.089Z,76.60
2019-05-01T15:40:16.413Z,80.50
2019-05-01T15:42:52.804Z,79.00
2019-05-01T15:45:21.624Z,77.70
2019-05-01T15:47:50.424Z,78.30
2019-05-01T15:50:19.260Z,78.60
2019-05-01T15:52:47.997Z,76.90
2019-05-01T15:55:16.939Z,77.70
2019-05-01T15:57:45.748Z,77.10
2019-05-01T16:00:16.557Z,80.00
2019-05-01T16:02:45.297Z,81.70
2019-05-01T16:05:14.420Z,81.60
2019-05-01T16:07:43.228Z,76.70
2019-05-01T16:10:14.130Z,77.10
2019-05-01T16:12:44.507Z,77.90
2019-05-01T16:15:17.748Z,79.90
2019-05-01T16:17:46.561Z,78.40
2019-05-01T16:20:16.817Z,79.20
2019-05-01T16:22:45.967Z,79.60
2019-05-01T16:25:15.110Z,81.30
2019-05-01T16:27:43.957Z,81.90
2019-05-01T16:30:14.444Z,83.10
2019-05-01T16:32:43.214Z,81.40
2019-05-01T16:35:11.957Z,82.00
2019-05-01T16:37:40.738Z,81.50
2019-05-01T16:40:17.309Z,82.30
2019-05-01T16:42:46.116Z,82.40
2019-05-01T16:45:15.432Z,80.30
2019-05-01T16:47:44.198Z,80.90
2019-05-01T16:50:13.149Z,82.50
2019-05-01T16:52:43.389Z,82.50
2019-05-01T16:55:13.725Z,82.10
2019-05-01T16:57:42.492Z,83.50
2019-05-01T17:00:12.902Z,83.40
2019-05-01T17:02:52.392Z,82.30
2019-05-01T17:05:28.625Z,80.60
2019-05-01T17:07:59.028Z,80.10
2019-05-01T17:10:35.425Z,80.90
2019-05-01T17:13:05.052Z,80.70
2019-05-01T17:15:35.431Z,81.40
2019-05-01T17:18:04.297Z,82.10
2019-05-01T17:20:33.120Z,82.80
2019-05-01T17:23:01.960Z,83.50
2019-05-01T17:25:30.770Z,83.00
2019-05-01T17:28:02.974Z,82.80
2019-05-01T17:30:45.075Z,82.10
2019-05-01T17:33:19.552Z,82.80
2019-05-01T17:35:44.217Z,82.20
2019-05-01T17:38:12.985Z,81.30
2019-05-01T17:40:41.728Z,84.50
2019-05-01T17:43:13.409Z,84.80
2019-05-01T17:45:40.951Z,85.70
2019-05-01T17:48:10.791Z,85.00
2019-05-01T17:50:39.485Z,85.10
2019-05-01T17:53:08.261Z,86.40
2019-05-01T17:55:37.070Z,87.20
2019-05-01T17:58:05.936Z,86.00
2019-05-01T18:00:39.066Z,92.40
2019-05-01T18:03:26.137Z,93.10
2019-05-01T18:06:08.400Z,95.50
2019-05-01T18:08:37.237Z,96.70
2019-05-01T18:11:09.298Z,96.40
2019-05-01T18:13:36.433Z,98.10
2019-05-01T18:16:05.341Z,99.00
2019-05-01T18:18:34.111Z,97.90
2019-05-01T18:21:03.360Z,98.60
2019-05-01T18:23:53.031Z,99.30
2019-05-01T18:26:38.765Z,99.90
2019-05-01T18:29:10.173Z,99.90
2019-05-01T18:31:42.111Z,99.90
2019-05-01T18:34:11.466Z,99.90
2019-05-01T18:36:44.648Z,99.90
2019-05-01T18:39:16.983Z,99.90
2019-05-01T18:41:50.757Z,99.90
2019-05-01T18:44:24.416Z,99.90
2019-05-01T18:46:53.368Z,99.90
2019-05-01T18:49:22.280Z,99.90
2019-05-01T18:51:51.973Z,99.90
2019-05-01T18:54:20.852Z,99.90
2019-05-01T18:56:50.318Z,99.90
2019-05-01T18:59:20.556Z,99.90
2019-05-01T19:01:50.753Z,99.90
2019-05-01T19:04:23.567Z,99.90
2019-05-01T19:06:49.994Z,99.90
2019-05-01T19:09:29.369Z,99.90
2019-05-01T19:11:49.208Z,99.90
2019-05-01T19:14:18.621Z,99.90
2019-05-01T19:16:47.464Z,99.90
2019-05-01T19:19:16.308Z,99.90
2019-05-01T19:21:46.539Z,99.90
2019-05-01T19:24:16.513Z,99.90
2019-05-01T19:26:45.430Z,99.90
2019-05-01T19:29:14.257Z,99.90
2019-05-01T19:31:43.104Z,99.90
2019-05-01T19:34:11.893Z,99.90
2019-05-01T19:36:45.137Z,99.90
2019-05-01T19:39:12.861Z,99.90
2019-05-01T19:41:43.788Z,99.90
2019-05-01T19:44:13.849Z,99.90
2019-05-01T19:46:42.738Z,99.90
2019-05-01T19:49:11.550Z,99.90
2019-05-01T19:51:40.254Z,99.90
2019-05-01T19:54:09.028Z,99.90
2019-05-01T19:56:37.853Z,99.90
2019-05-01T19:59:06.629Z,99.90
2019-05-01T20:01:38.457Z,99.90
2019-05-01T20:04:08.442Z,99.90
2019-05-01T20:06:38.547Z,99.90
2019-05-01T20:09:07.006Z,99.90
2019-05-01T20:11:35.829Z,99.90
2019-05-01T20:14:06.222Z,99.90
2019-05-01T20:16:35.251Z,99.90
2019-05-01T20:19:04.159Z,99.90
2019-05-01T20:21:32.956Z,99.90
2019-05-01T20:24:04.402Z,99.90
2019-05-01T20:26:33.995Z,99.90
2019-05-01T20:29:02.768Z,99.90
2019-05-01T20:31:32.862Z,99.90
2019-05-01T20:34:01.806Z,99.90
2019-05-01T20:36:30.553Z,99.90
2019-05-01T20:38:59.361Z,99.90
2019-05-01T20:41:28.297Z,99.90
2019-05-01T20:43:57.036Z,99.90
2019-05-01T20:46:27.724Z,99.90
2019-05-01T20:49:00.954Z,99.90
2019-05-01T20:51:26.762Z,99.90
2019-05-01T20:53:55.534Z,99.90
2019-05-01T20:56:26.352Z,99.90
2019-05-01T20:58:57.623Z,99.90
2019-05-01T21:01:28.224Z,99.90
2019-05-01T21:03:59.184Z,99.90
2019-05-01T21:06:29.602Z,99.90
2019-05-01T21:09:13.819Z,99.90
2019-05-01T21:11:42.239Z,99.90
2019-05-01T21:14:22.599Z,99.90
2019-05-01T21:16:43.381Z,99.90
2019-05-01T21:19:12.180Z,99.90
2019-05-01T21:21:41.150Z,99.90
2019-05-01T21:24:09.880Z,99.90
2019-05-01T21:26:38.684Z,99.90
2019-05-01T21:29:07.436Z,99.90
2019-05-01T21:31:36.277Z,99.90
2019-05-01T21:34:05.096Z,99.90
2019-05-01T21:36:33.865Z,99.90
2019-05-01T21:39:02.686Z,99.90
2019-05-01T21:41:32.878Z,99.90
2019-05-01T21:44:03.127Z,99.90
2019-05-01T21:46:33.945Z,99.90
2019-05-01T21:49:02.770Z,99.90
2019-05-01T21:51:32.858Z,99.90
2019-05-01T21:54:03.293Z,99.90
2019-05-01T21:56:32.157Z,99.90
2019-05-01T21:59:06.640Z,99.90
2019-05-01T22:01:34.882Z,99.90
2019-05-01T22:04:02.346Z,99.90
2019-05-01T22:06:31.288Z,99.90
2019-05-01T22:09:00.264Z,99.90
2019-05-01T22:11:33.044Z,99.90
2019-05-01T22:14:02.037Z,99.90
2019-05-01T22:16:31.069Z,99.90
2019-05-01T22:19:01.584Z,99.90
2019-05-01T22:21:34.677Z,99.90
2019-05-01T22:24:14.216Z,99.90
2019-05-01T22:26:50.457Z,99.90
2019-05-01T22:29:20.877Z,99.90
2019-05-01T22:32:07.148Z,99.90
2019-05-01T22:34:46.529Z,99.90
2019-05-01T22:37:15.270Z,99.90
2019-05-01T22:39:45.688Z,99.90
2019-05-01T22:42:14.500Z,99.90
2019-05-01T22:44:43.345Z,99.90
2019-05-01T22:47:15.002Z,99.90
2019-05-01T22:49:42.617Z,99.90
2019-05-01T22:52:11.357Z,99.90
2019-05-01T22:54:40.124Z,99.90
2019-05-01T22:57:08.866Z,99.90
2019-05-01T22:59:37.637Z,99.90
2019-05-01T23:02:24.243Z,99.90
2019-05-01T23:04:52.071Z,99.90
2019-05-01T23:07:21.169Z,99.90
2019-05-01T23:09:50.008Z,99.90
2019-05-01T23:12:18.824Z,99.90
2019-05-01T23:14:47.664Z,99.90
2019-05-01T23:17:20.641Z,99.90
2019-05-01T23:19:49.576Z,99.90
2019-05-01T23:22:18.584Z,99.90
2019-05-01T23:24:47.423Z,99.90
2019-05-01T23:27:16.229Z,99.90
2019-05-01T23:29:45.049Z,99.90
2019-05-01T23:32:13.906Z,99.90
2019-05-01T23:34:42.646Z,99.90
2019-05-01T23:37:11.414Z,99.90
2019-05-01T23:39:42.095Z,99.90
2019-05-01T23:42:10.675Z,99.90
2019-05-01T23:44:43.034Z,99.90
2019-05-01T23:47:09.905Z,99.90
2019-05-01T23:49:38.717Z,99.90
2019-05-01T23:52:07.552Z,99.90
2019-05-01T23:54:36.292Z,99.90
2019-05-01T23:57:05.072Z,99.90
2019-05-01T23:59:33.881Z,99.90
